Pigeon Falls, Wisconsin
Current Conditions -  °F | °C
As of 11:35 AM on Monday 22 Dec 2014 (Local Time) from KBCK Reporting Station
Overcast Overcast  
Wind Chill: 34°   Ceiling: 3400
Heat Index: 39°   Visibility: 7mi
Dew Point: 32°   Wind: 7mph
Humidity: 76%   Direction: 130°SE
Pressure: 29.72"   Gusts: NA
Location:  44.43°N, 91.21°W
Report Text: KBCK 221735Z AUTO 13006KT 7SM OVC034 04/00 A2972 RMK AO2 T00400001
Loading
Personal Weather Stations






























Interactive Weather Map New forecast layout! Learn more

10-Day Weather Forecast

Advertisements
Track Severe Weather on mobile